sensor_id;sensor_type;location;lat;lon;timestamp;P1;durP1;ratioP1;P2;durP2;ratioP2
4462;SDS011;2244;50.200;8.220;2023-10-19T00:00:41;28.20;;;11.37;;
4462;SDS011;2244;50.200;8.220;2023-10-19T00:03:12;28.70;;;11.73;;
4462;SDS011;2244;50.200;8.220;2023-10-19T00:05:39;26.80;;;10.53;;
4462;SDS011;2244;50.200;8.220;2023-10-19T00:08:08;27.70;;;10.30;;
4462;SDS011;2244;50.200;8.220;2023-10-19T00:10:44;28.37;;;12.30;;
4462;SDS011;2244;50.200;8.220;2023-10-19T00:13:14;29.20;;;12.50;;
4462;SDS011;2244;50.200;8.220;2023-10-19T00:15:43;27.00;;;10.97;;
4462;SDS011;2244;50.200;8.220;2023-10-19T00:18:15;29.63;;;12.53;;
4462;SDS011;2244;50.200;8.220;2023-10-19T00:20:45;28.80;;;11.83;;
4462;SDS011;2244;50.200;8.220;2023-10-19T00:23:14;29.20;;;12.70;;
4462;SDS011;2244;50.200;8.220;2023-10-19T00:25:46;28.57;;;12.40;;
4462;SDS011;2244;50.200;8.220;2023-10-19T00:28:21;29.03;;;12.07;;
4462;SDS011;2244;50.200;8.220;2023-10-19T00:30:49;27.83;;;11.33;;
4462;SDS011;2244;50.200;8.220;2023-10-19T00:33:18;28.20;;;10.67;;
4462;SDS011;2244;50.200;8.220;2023-10-19T00:35:47;28.30;;;12.50;;
4462;SDS011;2244;50.200;8.220;2023-10-19T00:38:20;31.27;;;13.30;;
4462;SDS011;2244;50.200;8.220;2023-10-19T00:40:55;31.93;;;13.17;;
4462;SDS011;2244;50.200;8.220;2023-10-19T00:43:40;30.60;;;13.67;;
4462;SDS011;2244;50.200;8.220;2023-10-19T00:48:49;33.70;;;16.50;;
4462;SDS011;2244;50.200;8.220;2023-10-19T00:51:19;36.30;;;16.07;;
4462;SDS011;2244;50.200;8.220;2023-10-19T00:53:52;34.63;;;15.53;;
4462;SDS011;2244;50.200;8.220;2023-10-19T00:56:20;37.17;;;16.23;;
4462;SDS011;2244;50.200;8.220;2023-10-19T00:58:49;39.53;;;19.10;;
4462;SDS011;2244;50.200;8.220;2023-10-19T01:01:22;37.97;;;18.93;;
4462;SDS011;2244;50.200;8.220;2023-10-19T01:03:51;42.03;;;20.93;;
4462;SDS011;2244;50.200;8.220;2023-10-19T01:06:20;42.10;;;20.17;;
4462;SDS011;2244;50.200;8.220;2023-10-19T01:08:48;37.73;;;19.50;;
4462;SDS011;2244;50.200;8.220;2023-10-19T01:11:17;39.33;;;20.20;;
4462;SDS011;2244;50.200;8.220;2023-10-19T01:13:47;40.53;;;19.30;;
4462;SDS011;2244;50.200;8.220;2023-10-19T01:16:15;38.67;;;18.50;;
4462;SDS011;2244;50.200;8.220;2023-10-19T01:18:52;40.27;;;18.90;;
4462;SDS011;2244;50.200;8.220;2023-10-19T01:21:23;40.03;;;19.37;;
4462;SDS011;2244;50.200;8.220;2023-10-19T01:24:07;36.30;;;17.83;;
4462;SDS011;2244;50.200;8.220;2023-10-19T01:26:35;35.60;;;16.63;;
4462;SDS011;2244;50.200;8.220;2023-10-19T01:29:04;37.23;;;17.30;;
4462;SDS011;2244;50.200;8.220;2023-10-19T01:31:42;34.20;;;16.23;;
4462;SDS011;2244;50.200;8.220;2023-10-19T01:34:20;35.13;;;16.10;;
4462;SDS011;2244;50.200;8.220;2023-10-19T01:36:48;37.20;;;16.97;;
4462;SDS011;2244;50.200;8.220;2023-10-19T01:39:17;37.00;;;17.33;;
4462;SDS011;2244;50.200;8.220;2023-10-19T01:41:45;34.23;;;16.03;;
4462;SDS011;2244;50.200;8.220;2023-10-19T01:44:13;37.00;;;16.67;;
4462;SDS011;2244;50.200;8.220;2023-10-19T01:46:42;43.63;;;18.90;;
4462;SDS011;2244;50.200;8.220;2023-10-19T01:49:12;42.90;;;19.00;;
4462;SDS011;2244;50.200;8.220;2023-10-19T01:51:40;43.70;;;20.77;;
4462;SDS011;2244;50.200;8.220;2023-10-19T01:54:09;46.20;;;19.63;;
4462;SDS011;2244;50.200;8.220;2023-10-19T01:56:37;40.90;;;18.50;;
4462;SDS011;2244;50.200;8.220;2023-10-19T01:59:06;47.60;;;19.50;;
4462;SDS011;2244;50.200;8.220;2023-10-19T02:01:35;49.70;;;21.23;;
4462;SDS011;2244;50.200;8.220;2023-10-19T02:04:05;45.60;;;21.10;;
4462;SDS011;2244;50.200;8.220;2023-10-19T02:06:34;43.97;;;20.00;;
4462;SDS011;2244;50.200;8.220;2023-10-19T02:09:11;46.37;;;20.47;;
4462;SDS011;2244;50.200;8.220;2023-10-19T02:11:46;44.40;;;20.67;;
4462;SDS011;2244;50.200;8.220;2023-10-19T02:14:15;49.60;;;22.50;;
4462;SDS011;2244;50.200;8.220;2023-10-19T02:16:46;50.60;;;22.03;;
4462;SDS011;2244;50.200;8.220;2023-10-19T02:19:14;59.33;;;24.03;;
4462;SDS011;2244;50.200;8.220;2023-10-19T02:21:42;51.97;;;21.90;;
4462;SDS011;2244;50.200;8.220;2023-10-19T02:24:09;53.30;;;23.13;;
4462;SDS011;2244;50.200;8.220;2023-10-19T02:26:43;59.33;;;23.33;;
4462;SDS011;2244;50.200;8.220;2023-10-19T02:29:13;55.03;;;22.53;;
4462;SDS011;2244;50.200;8.220;2023-10-19T02:31:41;54.67;;;23.43;;
4462;SDS011;2244;50.200;8.220;2023-10-19T02:34:09;56.87;;;24.50;;
4462;SDS011;2244;50.200;8.220;2023-10-19T02:36:43;55.77;;;25.27;;
4462;SDS011;2244;50.200;8.220;2023-10-19T02:39:11;64.10;;;25.00;;
4462;SDS011;2244;50.200;8.220;2023-10-19T02:41:41;53.93;;;22.30;;
4462;SDS011;2244;50.200;8.220;2023-10-19T02:44:11;58.43;;;23.30;;
4462;SDS011;2244;50.200;8.220;2023-10-19T02:46:41;57.10;;;23.67;;
4462;SDS011;2244;50.200;8.220;2023-10-19T02:49:09;55.77;;;23.60;;
4462;SDS011;2244;50.200;8.220;2023-10-19T02:51:50;55.83;;;22.20;;
4462;SDS011;2244;50.200;8.220;2023-10-19T02:54:19;57.13;;;23.17;;
4462;SDS011;2244;50.200;8.220;2023-10-19T02:56:49;61.97;;;23.37;;
4462;SDS011;2244;50.200;8.220;2023-10-19T02:59:20;56.60;;;23.70;;
4462;SDS011;2244;50.200;8.220;2023-10-19T03:01:55;69.53;;;24.37;;
4462;SDS011;2244;50.200;8.220;2023-10-19T03:04:36;57.33;;;23.73;;
4462;SDS011;2244;50.200;8.220;2023-10-19T03:07:04;52.90;;;21.40;;
4462;SDS011;2244;50.200;8.220;2023-10-19T03:09:34;75.33;;;24.80;;
4462;SDS011;2244;50.200;8.220;2023-10-19T03:12:03;66.43;;;24.93;;
4462;SDS011;2244;50.200;8.220;2023-10-19T03:14:33;62.90;;;24.40;;
4462;SDS011;2244;50.200;8.220;2023-10-19T03:17:00;61.80;;;23.20;;
4462;SDS011;2244;50.200;8.220;2023-10-19T03:19:29;65.00;;;24.27;;
4462;SDS011;2244;50.200;8.220;2023-10-19T03:21:57;63.70;;;24.60;;
4462;SDS011;2244;50.200;8.220;2023-10-19T03:24:26;61.53;;;23.50;;
4462;SDS011;2244;50.200;8.220;2023-10-19T03:27:06;71.80;;;28.67;;
4462;SDS011;2244;50.200;8.220;2023-10-19T03:29:46;72.83;;;26.37;;
4462;SDS011;2244;50.200;8.220;2023-10-19T03:32:15;68.17;;;27.30;;
4462;SDS011;2244;50.200;8.220;2023-10-19T03:34:43;60.40;;;25.73;;
4462;SDS011;2244;50.200;8.220;2023-10-19T03:37:13;67.93;;;27.53;;
4462;SDS011;2244;50.200;8.220;2023-10-19T03:39:41;68.40;;;28.03;;
4462;SDS011;2244;50.200;8.220;2023-10-19T03:42:11;62.30;;;24.63;;
4462;SDS011;2244;50.200;8.220;2023-10-19T03:44:40;68.97;;;25.77;;
4462;SDS011;2244;50.200;8.220;2023-10-19T03:47:09;71.03;;;25.33;;
4462;SDS011;2244;50.200;8.220;2023-10-19T03:49:41;72.87;;;28.13;;
4462;SDS011;2244;50.200;8.220;2023-10-19T03:52:10;81.13;;;27.47;;
4462;SDS011;2244;50.200;8.220;2023-10-19T03:54:39;70.97;;;28.93;;
4462;SDS011;2244;50.200;8.220;2023-10-19T03:57:09;69.00;;;25.10;;
4462;SDS011;2244;50.200;8.220;2023-10-19T03:59:41;64.67;;;26.17;;
4462;SDS011;2244;50.200;8.220;2023-10-19T04:02:09;60.43;;;24.97;;
4462;SDS011;2244;50.200;8.220;2023-10-19T04:04:39;68.80;;;26.13;;
4462;SDS011;2244;50.200;8.220;2023-10-19T04:07:09;63.30;;;26.50;;
4462;SDS011;2244;50.200;8.220;2023-10-19T04:09:38;62.87;;;27.33;;
4462;SDS011;2244;50.200;8.220;2023-10-19T04:12:07;64.43;;;26.60;;
4462;SDS011;2244;50.200;8.220;2023-10-19T04:14:36;60.20;;;26.30;;
4462;SDS011;2244;50.200;8.220;2023-10-19T04:17:05;63.80;;;26.23;;
4462;SDS011;2244;50.200;8.220;2023-10-19T04:19:33;60.73;;;24.70;;
4462;SDS011;2244;50.200;8.220;2023-10-19T04:22:00;60.20;;;24.37;;
4462;SDS011;2244;50.200;8.220;2023-10-19T04:24:28;50.60;;;22.70;;
4462;SDS011;2244;50.200;8.220;2023-10-19T04:26:57;53.60;;;22.43;;
4462;SDS011;2244;50.200;8.220;2023-10-19T04:29:26;49.83;;;22.10;;
4462;SDS011;2244;50.200;8.220;2023-10-19T04:31:55;49.43;;;21.30;;
4462;SDS011;2244;50.200;8.220;2023-10-19T04:34:23;55.03;;;25.00;;
4462;SDS011;2244;50.200;8.220;2023-10-19T04:36:51;53.13;;;22.50;;
4462;SDS011;2244;50.200;8.220;2023-10-19T04:39:19;50.90;;;20.93;;
4462;SDS011;2244;50.200;8.220;2023-10-19T04:41:46;50.83;;;20.90;;
4462;SDS011;2244;50.200;8.220;2023-10-19T04:44:17;52.67;;;23.33;;
4462;SDS011;2244;50.200;8.220;2023-10-19T04:46:44;55.20;;;23.17;;
4462;SDS011;2244;50.200;8.220;2023-10-19T04:49:13;51.93;;;22.13;;
4462;SDS011;2244;50.200;8.220;2023-10-19T04:51:40;48.83;;;21.33;;
4462;SDS011;2244;50.200;8.220;2023-10-19T04:54:09;56.03;;;23.47;;
4462;SDS011;2244;50.200;8.220;2023-10-19T04:56:37;46.80;;;20.37;;
4462;SDS011;2244;50.200;8.220;2023-10-19T04:59:04;49.07;;;22.10;;
4462;SDS011;2244;50.200;8.220;2023-10-19T05:01:32;48.60;;;22.40;;
4462;SDS011;2244;50.200;8.220;2023-10-19T05:04:00;43.97;;;18.57;;
4462;SDS011;2244;50.200;8.220;2023-10-19T05:06:28;44.47;;;19.40;;
4462;SDS011;2244;50.200;8.220;2023-10-19T05:08:55;48.40;;;21.80;;
4462;SDS011;2244;50.200;8.220;2023-10-19T05:11:23;46.57;;;20.73;;
4462;SDS011;2244;50.200;8.220;2023-10-19T05:13:51;45.77;;;20.60;;
4462;SDS011;2244;50.200;8.220;2023-10-19T05:16:18;44.77;;;20.50;;
4462;SDS011;2244;50.200;8.220;2023-10-19T05:18:46;47.00;;;20.30;;
4462;SDS011;2244;50.200;8.220;2023-10-19T05:21:14;48.73;;;21.43;;
4462;SDS011;2244;50.200;8.220;2023-10-19T05:23:42;52.60;;;23.27;;
4462;SDS011;2244;50.200;8.220;2023-10-19T05:26:09;45.30;;;20.10;;
4462;SDS011;2244;50.200;8.220;2023-10-19T05:28:37;52.43;;;22.27;;
4462;SDS011;2244;50.200;8.220;2023-10-19T05:31:04;46.90;;;19.30;;
4462;SDS011;2244;50.200;8.220;2023-10-19T05:33:32;50.03;;;21.10;;
4462;SDS011;2244;50.200;8.220;2023-10-19T05:35:59;47.53;;;20.90;;
4462;SDS011;2244;50.200;8.220;2023-10-19T05:38:27;49.20;;;19.80;;
4462;SDS011;2244;50.200;8.220;2023-10-19T05:40:56;47.80;;;20.50;;
4462;SDS011;2244;50.200;8.220;2023-10-19T05:43:25;45.10;;;20.30;;
4462;SDS011;2244;50.200;8.220;2023-10-19T05:45:54;48.00;;;20.30;;
4462;SDS011;2244;50.200;8.220;2023-10-19T05:48:23;45.97;;;20.60;;
4462;SDS011;2244;50.200;8.220;2023-10-19T05:50:51;43.20;;;18.47;;
4462;SDS011;2244;50.200;8.220;2023-10-19T05:53:18;46.57;;;18.60;;
4462;SDS011;2244;50.200;8.220;2023-10-19T05:55:48;45.67;;;19.90;;
4462;SDS011;2244;50.200;8.220;2023-10-19T05:58:15;49.37;;;19.57;;
4462;SDS011;2244;50.200;8.220;2023-10-19T06:00:43;42.80;;;17.40;;
4462;SDS011;2244;50.200;8.220;2023-10-19T06:03:10;48.67;;;20.83;;
4462;SDS011;2244;50.200;8.220;2023-10-19T06:05:38;41.93;;;18.27;;
4462;SDS011;2244;50.200;8.220;2023-10-19T06:08:05;45.50;;;19.27;;
4462;SDS011;2244;50.200;8.220;2023-10-19T06:10:33;44.43;;;19.63;;
4462;SDS011;2244;50.200;8.220;2023-10-19T06:13:01;43.10;;;18.30;;
4462;SDS011;2244;50.200;8.220;2023-10-19T06:15:28;48.03;;;21.03;;
4462;SDS011;2244;50.200;8.220;2023-10-19T06:17:57;43.23;;;18.47;;
4462;SDS011;2244;50.200;8.220;2023-10-19T06:20:25;45.43;;;20.17;;
4462;SDS011;2244;50.200;8.220;2023-10-19T06:22:56;45.80;;;18.53;;
4462;SDS011;2244;50.200;8.220;2023-10-19T06:25:26;48.97;;;18.60;;
4462;SDS011;2244;50.200;8.220;2023-10-19T06:27:53;45.50;;;18.93;;
4462;SDS011;2244;50.200;8.220;2023-10-19T06:30:23;44.53;;;17.87;;
4462;SDS011;2244;50.200;8.220;2023-10-19T06:32:54;47.27;;;19.97;;
4462;SDS011;2244;50.200;8.220;2023-10-19T06:35:22;44.47;;;19.87;;
4462;SDS011;2244;50.200;8.220;2023-10-19T06:37:50;53.67;;;21.60;;
4462;SDS011;2244;50.200;8.220;2023-10-19T06:40:18;47.40;;;19.60;;
4462;SDS011;2244;50.200;8.220;2023-10-19T06:42:46;49.00;;;19.43;;
4462;SDS011;2244;50.200;8.220;2023-10-19T06:45:14;51.30;;;20.23;;
4462;SDS011;2244;50.200;8.220;2023-10-19T06:47:42;49.27;;;19.97;;
4462;SDS011;2244;50.200;8.220;2023-10-19T06:50:12;51.23;;;20.90;;
4462;SDS011;2244;50.200;8.220;2023-10-19T06:52:42;51.03;;;18.87;;
4462;SDS011;2244;50.200;8.220;2023-10-19T06:55:10;45.10;;;20.33;;
4462;SDS011;2244;50.200;8.220;2023-10-19T06:57:42;48.40;;;21.10;;
4462;SDS011;2244;50.200;8.220;2023-10-19T07:00:10;47.60;;;20.70;;
4462;SDS011;2244;50.200;8.220;2023-10-19T07:02:43;46.43;;;21.40;;
4462;SDS011;2244;50.200;8.220;2023-10-19T07:05:10;43.90;;;20.13;;
4462;SDS011;2244;50.200;8.220;2023-10-19T07:07:39;44.33;;;20.40;;
4462;SDS011;2244;50.200;8.220;2023-10-19T07:10:08;42.73;;;19.30;;
4462;SDS011;2244;50.200;8.220;2023-10-19T07:12:36;45.57;;;20.80;;
4462;SDS011;2244;50.200;8.220;2023-10-19T07:15:05;43.70;;;19.20;;
4462;SDS011;2244;50.200;8.220;2023-10-19T07:17:34;46.80;;;21.27;;
4462;SDS011;2244;50.200;8.220;2023-10-19T07:20:06;46.03;;;21.23;;
4462;SDS011;2244;50.200;8.220;2023-10-19T07:22:35;45.30;;;21.90;;
4462;SDS011;2244;50.200;8.220;2023-10-19T07:25:08;42.47;;;19.73;;
4462;SDS011;2244;50.200;8.220;2023-10-19T07:27:35;43.80;;;18.63;;
4462;SDS011;2244;50.200;8.220;2023-10-19T07:30:04;46.00;;;21.20;;
4462;SDS011;2244;50.200;8.220;2023-10-19T07:32:33;41.60;;;19.77;;
4462;SDS011;2244;50.200;8.220;2023-10-19T07:35:01;40.60;;;18.80;;
4462;SDS011;2244;50.200;8.220;2023-10-19T07:37:29;40.57;;;18.00;;
4462;SDS011;2244;50.200;8.220;2023-10-19T07:39:58;39.00;;;17.47;;
4462;SDS011;2244;50.200;8.220;2023-10-19T07:42:25;41.97;;;17.90;;
4462;SDS011;2244;50.200;8.220;2023-10-19T07:44:53;41.37;;;17.17;;
4462;SDS011;2244;50.200;8.220;2023-10-19T07:47:20;39.73;;;18.70;;
4462;SDS011;2244;50.200;8.220;2023-10-19T07:49:48;43.07;;;18.43;;
4462;SDS011;2244;50.200;8.220;2023-10-19T07:52:17;43.60;;;17.27;;
4462;SDS011;2244;50.200;8.220;2023-10-19T07:54:45;38.93;;;15.30;;
4462;SDS011;2244;50.200;8.220;2023-10-19T07:57:13;44.07;;;19.03;;
4462;SDS011;2244;50.200;8.220;2023-10-19T07:59:42;40.23;;;17.70;;
4462;SDS011;2244;50.200;8.220;2023-10-19T08:02:09;40.40;;;16.93;;
4462;SDS011;2244;50.200;8.220;2023-10-19T08:04:37;43.73;;;18.57;;
4462;SDS011;2244;50.200;8.220;2023-10-19T08:07:05;41.30;;;18.83;;
4462;SDS011;2244;50.200;8.220;2023-10-19T08:09:32;42.30;;;17.97;;
4462;SDS011;2244;50.200;8.220;2023-10-19T08:12:01;38.20;;;16.73;;
4462;SDS011;2244;50.200;8.220;2023-10-19T08:14:30;40.13;;;16.80;;
4462;SDS011;2244;50.200;8.220;2023-10-19T08:16:58;39.80;;;17.70;;
4462;SDS011;2244;50.200;8.220;2023-10-19T08:19:29;42.40;;;16.70;;
4462;SDS011;2244;50.200;8.220;2023-10-19T08:21:58;38.17;;;17.60;;
4462;SDS011;2244;50.200;8.220;2023-10-19T08:24:25;36.03;;;15.13;;
4462;SDS011;2244;50.200;8.220;2023-10-19T08:26:55;35.90;;;13.97;;
4462;SDS011;2244;50.200;8.220;2023-10-19T08:29:22;39.17;;;14.07;;
4462;SDS011;2244;50.200;8.220;2023-10-19T08:31:50;37.80;;;13.83;;
4462;SDS011;2244;50.200;8.220;2023-10-19T08:34:18;36.23;;;14.30;;
4462;SDS011;2244;50.200;8.220;2023-10-19T08:36:46;35.53;;;13.00;;
4462;SDS011;2244;50.200;8.220;2023-10-19T08:39:16;36.23;;;12.70;;
4462;SDS011;2244;50.200;8.220;2023-10-19T08:41:44;34.00;;;13.60;;
4462;SDS011;2244;50.200;8.220;2023-10-19T08:44:15;30.97;;;12.90;;
4462;SDS011;2244;50.200;8.220;2023-10-19T08:46:44;34.03;;;12.17;;
4462;SDS011;2244;50.200;8.220;2023-10-19T08:49:16;34.20;;;13.80;;
4462;SDS011;2244;50.200;8.220;2023-10-19T08:51:46;33.73;;;13.07;;
4462;SDS011;2244;50.200;8.220;2023-10-19T08:54:13;32.30;;;13.13;;
4462;SDS011;2244;50.200;8.220;2023-10-19T08:56:41;34.73;;;12.33;;
4462;SDS011;2244;50.200;8.220;2023-10-19T08:59:09;30.43;;;11.93;;
4462;SDS011;2244;50.200;8.220;2023-10-19T09:01:41;32.87;;;12.40;;
4462;SDS011;2244;50.200;8.220;2023-10-19T09:04:11;34.10;;;12.27;;
4462;SDS011;2244;50.200;8.220;2023-10-19T09:06:40;35.20;;;10.93;;
4462;SDS011;2244;50.200;8.220;2023-10-19T09:09:11;28.80;;;11.10;;
4462;SDS011;2244;50.200;8.220;2023-10-19T09:11:47;30.90;;;10.80;;
4462;SDS011;2244;50.200;8.220;2023-10-19T09:14:14;32.87;;;12.07;;
4462;SDS011;2244;50.200;8.220;2023-10-19T09:16:53;30.23;;;11.90;;
4462;SDS011;2244;50.200;8.220;2023-10-19T09:19:59;31.60;;;10.23;;
4462;SDS011;2244;50.200;8.220;2023-10-19T09:22:00;31.77;;;8.93;;
4462;SDS011;2244;50.200;8.220;2023-10-19T09:24:29;30.00;;;9.47;;
4462;SDS011;2244;50.200;8.220;2023-10-19T09:26:58;30.17;;;9.33;;
4462;SDS011;2244;50.200;8.220;2023-10-19T09:29:25;30.40;;;10.07;;
4462;SDS011;2244;50.200;8.220;2023-10-19T09:31:53;30.97;;;9.30;;
4462;SDS011;2244;50.200;8.220;2023-10-19T09:34:24;31.27;;;10.50;;
4462;SDS011;2244;50.200;8.220;2023-10-19T09:36:54;27.27;;;7.77;;
4462;SDS011;2244;50.200;8.220;2023-10-19T09:39:21;26.63;;;7.17;;
4462;SDS011;2244;50.200;8.220;2023-10-19T09:41:52;28.17;;;7.40;;
4462;SDS011;2244;50.200;8.220;2023-10-19T09:44:20;32.80;;;15.10;;
4462;SDS011;2244;50.200;8.220;2023-10-19T09:46:50;27.00;;;7.87;;
4462;SDS011;2244;50.200;8.220;2023-10-19T09:49:19;29.57;;;9.70;;
4462;SDS011;2244;50.200;8.220;2023-10-19T09:51:47;28.87;;;8.10;;
4462;SDS011;2244;50.200;8.220;2023-10-19T09:54:20;32.53;;;8.73;;
4462;SDS011;2244;50.200;8.220;2023-10-19T09:56:49;29.03;;;8.30;;
4462;SDS011;2244;50.200;8.220;2023-10-19T09:59:29;30.27;;;8.47;;
4462;SDS011;2244;50.200;8.220;2023-10-19T10:04:32;26.10;;;7.37;;
4462;SDS011;2244;50.200;8.220;2023-10-19T10:07:02;32.97;;;9.50;;
4462;SDS011;2244;50.200;8.220;2023-10-19T10:09:40;27.33;;;8.80;;
4462;SDS011;2244;50.200;8.220;2023-10-19T10:12:22;26.20;;;8.10;;
4462;SDS011;2244;50.200;8.220;2023-10-19T10:14:55;30.43;;;8.70;;
4462;SDS011;2244;50.200;8.220;2023-10-19T10:17:25;25.80;;;8.40;;
4462;SDS011;2244;50.200;8.220;2023-10-19T10:20:04;28.30;;;8.47;;
4462;SDS011;2244;50.200;8.220;2023-10-19T10:22:26;29.77;;;8.70;;
4462;SDS011;2244;50.200;8.220;2023-10-19T10:24:54;30.47;;;8.07;;
4462;SDS011;2244;50.200;8.220;2023-10-19T10:27:23;30.20;;;9.90;;
4462;SDS011;2244;50.200;8.220;2023-10-19T10:29:54;26.93;;;8.07;;
4462;SDS011;2244;50.200;8.220;2023-10-19T10:35:07;54.90;;;48.83;;
4462;SDS011;2244;50.200;8.220;2023-10-19T10:37:38;28.00;;;9.60;;
4462;SDS011;2244;50.200;8.220;2023-10-19T10:40:06;36.57;;;15.30;;
4462;SDS011;2244;50.200;8.220;2023-10-19T10:42:34;33.70;;;11.40;;
4462;SDS011;2244;50.200;8.220;2023-10-19T10:45:02;35.20;;;11.03;;
4462;SDS011;2244;50.200;8.220;2023-10-19T10:50:32;31.90;;;11.87;;
4462;SDS011;2244;50.200;8.220;2023-10-19T10:53:00;30.47;;;11.53;;
4462;SDS011;2244;50.200;8.220;2023-10-19T10:55:27;29.43;;;11.83;;
4462;SDS011;2244;50.200;8.220;2023-10-19T10:57:54;33.83;;;11.47;;
4462;SDS011;2244;50.200;8.220;2023-10-19T11:00:22;28.07;;;10.03;;
4462;SDS011;2244;50.200;8.220;2023-10-19T11:03:01;31.07;;;10.07;;
4462;SDS011;2244;50.200;8.220;2023-10-19T11:05:30;29.40;;;8.90;;
4462;SDS011;2244;50.200;8.220;2023-10-19T11:08:23;30.23;;;9.60;;
4462;SDS011;2244;50.200;8.220;2023-10-19T11:10:50;35.97;;;11.23;;
4462;SDS011;2244;50.200;8.220;2023-10-19T11:13:22;30.13;;;9.10;;
4462;SDS011;2244;50.200;8.220;2023-10-19T11:15:52;26.60;;;8.77;;
4462;SDS011;2244;50.200;8.220;2023-10-19T11:18:31;28.63;;;9.33;;
4462;SDS011;2244;50.200;8.220;2023-10-19T11:21:00;28.60;;;10.63;;
4462;SDS011;2244;50.200;8.220;2023-10-19T11:26:04;28.63;;;8.50;;
4462;SDS011;2244;50.200;8.220;2023-10-19T11:28:32;26.80;;;7.90;;
4462;SDS011;2244;50.200;8.220;2023-10-19T11:31:12;26.17;;;9.03;;
4462;SDS011;2244;50.200;8.220;2023-10-19T11:33:44;26.73;;;8.20;;
4462;SDS011;2244;50.200;8.220;2023-10-19T11:36:12;32.73;;;8.97;;
4462;SDS011;2244;50.200;8.220;2023-10-19T11:38:40;26.87;;;8.37;;
4462;SDS011;2244;50.200;8.220;2023-10-19T11:41:08;28.37;;;8.40;;
4462;SDS011;2244;50.200;8.220;2023-10-19T11:43:35;30.33;;;9.17;;
4462;SDS011;2244;50.200;8.220;2023-10-19T11:46:03;27.27;;;9.00;;
4462;SDS011;2244;50.200;8.220;2023-10-19T11:48:34;27.53;;;8.50;;
4462;SDS011;2244;50.200;8.220;2023-10-19T11:51:02;27.10;;;9.57;;
4462;SDS011;2244;50.200;8.220;2023-10-19T11:53:31;28.23;;;7.90;;
4462;SDS011;2244;50.200;8.220;2023-10-19T11:56:00;31.00;;;8.50;;
4462;SDS011;2244;50.200;8.220;2023-10-19T11:58:30;28.87;;;8.30;;
4462;SDS011;2244;50.200;8.220;2023-10-19T12:00:59;32.60;;;17.40;;
4462;SDS011;2244;50.200;8.220;2023-10-19T12:03:27;29.07;;;9.90;;
4462;SDS011;2244;50.200;8.220;2023-10-19T12:05:54;27.50;;;9.27;;
4462;SDS011;2244;50.200;8.220;2023-10-19T12:08:23;28.77;;;9.40;;
4462;SDS011;2244;50.200;8.220;2023-10-19T12:10:50;30.70;;;10.13;;
4462;SDS011;2244;50.200;8.220;2023-10-19T12:13:18;30.43;;;9.50;;
4462;SDS011;2244;50.200;8.220;2023-10-19T12:15:46;29.87;;;10.13;;
4462;SDS011;2244;50.200;8.220;2023-10-19T12:18:15;29.67;;;8.00;;
4462;SDS011;2244;50.200;8.220;2023-10-19T12:20:42;26.80;;;8.10;;
4462;SDS011;2244;50.200;8.220;2023-10-19T12:23:11;27.27;;;8.73;;
4462;SDS011;2244;50.200;8.220;2023-10-19T12:25:39;29.33;;;8.67;;
4462;SDS011;2244;50.200;8.220;2023-10-19T12:28:10;30.10;;;12.90;;
4462;SDS011;2244;50.200;8.220;2023-10-19T12:30:39;25.20;;;7.13;;
4462;SDS011;2244;50.200;8.220;2023-10-19T12:33:08;30.37;;;8.40;;
4462;SDS011;2244;50.200;8.220;2023-10-19T12:35:41;28.03;;;7.40;;
4462;SDS011;2244;50.200;8.220;2023-10-19T12:38:17;36.93;;;8.00;;
4462;SDS011;2244;50.200;8.220;2023-10-19T12:40:47;27.67;;;7.73;;
4462;SDS011;2244;50.200;8.220;2023-10-19T12:43:14;28.47;;;8.33;;
4462;SDS011;2244;50.200;8.220;2023-10-19T12:45:42;27.37;;;8.33;;
4462;SDS011;2244;50.200;8.220;2023-10-19T12:48:10;26.97;;;8.60;;
4462;SDS011;2244;50.200;8.220;2023-10-19T12:50:38;25.03;;;7.83;;
4462;SDS011;2244;50.200;8.220;2023-10-19T12:53:07;31.33;;;8.50;;
4462;SDS011;2244;50.200;8.220;2023-10-19T12:55:35;28.77;;;8.37;;
4462;SDS011;2244;50.200;8.220;2023-10-19T12:58:04;31.13;;;9.13;;
4462;SDS011;2244;50.200;8.220;2023-10-19T13:00:36;32.87;;;10.00;;
4462;SDS011;2244;50.200;8.220;2023-10-19T13:03:05;28.33;;;8.50;;
4462;SDS011;2244;50.200;8.220;2023-10-19T13:05:33;29.77;;;9.67;;
4462;SDS011;2244;50.200;8.220;2023-10-19T13:08:01;30.00;;;9.90;;
4462;SDS011;2244;50.200;8.220;2023-10-19T13:10:29;32.53;;;9.00;;
4462;SDS011;2244;50.200;8.220;2023-10-19T13:13:00;31.40;;;10.00;;
4462;SDS011;2244;50.200;8.220;2023-10-19T13:15:34;29.53;;;9.07;;
4462;SDS011;2244;50.200;8.220;2023-10-19T13:18:02;28.13;;;10.80;;
4462;SDS011;2244;50.200;8.220;2023-10-19T13:20:30;28.20;;;8.60;;
4462;SDS011;2244;50.200;8.220;2023-10-19T13:23:00;30.70;;;9.20;;
4462;SDS011;2244;50.200;8.220;2023-10-19T13:25:35;31.33;;;9.63;;
4462;SDS011;2244;50.200;8.220;2023-10-19T13:28:07;31.50;;;10.83;;
4462;SDS011;2244;50.200;8.220;2023-10-19T13:30:40;31.70;;;10.03;;
4462;SDS011;2244;50.200;8.220;2023-10-19T13:33:05;28.90;;;11.87;;
4462;SDS011;2244;50.200;8.220;2023-10-19T13:35:37;29.30;;;11.93;;
4462;SDS011;2244;50.200;8.220;2023-10-19T13:38:05;32.53;;;11.57;;
4462;SDS011;2244;50.200;8.220;2023-10-19T13:40:34;32.67;;;11.90;;
4462;SDS011;2244;50.200;8.220;2023-10-19T13:43:02;34.17;;;14.00;;
4462;SDS011;2244;50.200;8.220;2023-10-19T13:45:35;37.20;;;15.10;;
4462;SDS011;2244;50.200;8.220;2023-10-19T13:48:03;39.03;;;16.73;;
4462;SDS011;2244;50.200;8.220;2023-10-19T13:50:31;38.57;;;16.40;;
4462;SDS011;2244;50.200;8.220;2023-10-19T13:52:59;35.77;;;17.23;;
4462;SDS011;2244;50.200;8.220;2023-10-19T13:55:27;34.43;;;14.63;;
4462;SDS011;2244;50.200;8.220;2023-10-19T13:57:57;35.60;;;17.63;;
4462;SDS011;2244;50.200;8.220;2023-10-19T14:00:25;37.87;;;17.40;;
4462;SDS011;2244;50.200;8.220;2023-10-19T14:03:03;36.70;;;18.13;;
4462;SDS011;2244;50.200;8.220;2023-10-19T14:05:38;39.77;;;18.50;;
4462;SDS011;2244;50.200;8.220;2023-10-19T14:08:06;42.77;;;20.67;;
4462;SDS011;2244;50.200;8.220;2023-10-19T14:10:34;42.17;;;21.70;;
4462;SDS011;2244;50.200;8.220;2023-10-19T14:13:02;43.87;;;22.97;;
4462;SDS011;2244;50.200;8.220;2023-10-19T14:15:31;46.57;;;23.83;;
4462;SDS011;2244;50.200;8.220;2023-10-19T14:18:00;46.93;;;25.90;;
4462;SDS011;2244;50.200;8.220;2023-10-19T14:20:28;43.00;;;25.80;;
4462;SDS011;2244;50.200;8.220;2023-10-19T14:22:57;47.90;;;26.10;;
4462;SDS011;2244;50.200;8.220;2023-10-19T14:25:24;51.30;;;28.13;;
4462;SDS011;2244;50.200;8.220;2023-10-19T14:27:53;46.90;;;26.93;;
4462;SDS011;2244;50.200;8.220;2023-10-19T14:30:23;52.70;;;30.80;;
4462;SDS011;2244;50.200;8.220;2023-10-19T14:32:51;49.43;;;28.73;;
4462;SDS011;2244;50.200;8.220;2023-10-19T14:35:20;50.23;;;30.87;;
4462;SDS011;2244;50.200;8.220;2023-10-19T14:37:48;50.57;;;31.40;;
4462;SDS011;2244;50.200;8.220;2023-10-19T14:40:17;56.60;;;32.97;;
4462;SDS011;2244;50.200;8.220;2023-10-19T14:42:48;52.67;;;30.77;;
4462;SDS011;2244;50.200;8.220;2023-10-19T14:45:19;52.20;;;29.63;;
4462;SDS011;2244;50.200;8.220;2023-10-19T14:47:48;48.07;;;28.37;;
4462;SDS011;2244;50.200;8.220;2023-10-19T14:50:16;49.80;;;28.10;;
4462;SDS011;2244;50.200;8.220;2023-10-19T14:52:45;47.73;;;26.53;;
4462;SDS011;2244;50.200;8.220;2023-10-19T14:55:14;45.00;;;25.57;;
4462;SDS011;2244;50.200;8.220;2023-10-19T14:57:43;48.83;;;27.10;;
4462;SDS011;2244;50.200;8.220;2023-10-19T15:00:11;47.20;;;26.97;;
4462;SDS011;2244;50.200;8.220;2023-10-19T15:02:49;44.00;;;24.67;;
4462;SDS011;2244;50.200;8.220;2023-10-19T15:05:17;42.53;;;23.87;;
4462;SDS011;2244;50.200;8.220;2023-10-19T15:07:46;37.97;;;21.70;;
4462;SDS011;2244;50.200;8.220;2023-10-19T15:10:16;38.77;;;21.90;;
4462;SDS011;2244;50.200;8.220;2023-10-19T15:12:43;35.93;;;18.10;;
4462;SDS011;2244;50.200;8.220;2023-10-19T15:15:11;35.97;;;19.90;;
4462;SDS011;2244;50.200;8.220;2023-10-19T15:17:38;37.10;;;18.57;;